sensor_id;sensor_type;location;lat;lon;timestamp;pressure;altitude;pressure_sealevel;temperature;humidity
53340;BME280;46212;50.258;19.062;2022-12-24T00:01:03;97463.09;;;5.26;100.00
53340;BME280;46212;50.258;19.062;2022-12-24T00:03:28;97458.97;;;5.22;100.00
53340;BME280;46212;50.258;19.062;2022-12-24T00:05:53;97464.31;;;5.25;100.00
53340;BME280;46212;50.258;19.062;2022-12-24T00:08:19;97457.47;;;5.30;100.00
53340;BME280;46212;50.258;19.062;2022-12-24T00:10:47;97451.97;;;5.21;100.00
53340;BME280;46212;50.258;19.062;2022-12-24T00:13:12;97457.56;;;5.17;100.00
53340;BME280;46212;50.258;19.062;2022-12-24T00:15:38;97448.03;;;5.22;100.00
53340;BME280;46212;50.258;19.062;2022-12-24T00:18:03;97446.19;;;5.19;100.00
53340;BME280;46212;50.258;19.062;2022-12-24T00:20:28;97445.88;;;5.17;100.00
53340;BME280;46212;50.258;19.062;2022-12-24T00:22:53;97446.19;;;5.19;100.00
53340;BME280;46212;50.258;19.062;2022-12-24T00:25:19;97451.53;;;5.22;100.00
53340;BME280;46212;50.258;19.062;2022-12-24T00:27:44;97439.09;;;5.30;100.00
53340;BME280;46212;50.258;19.062;2022-12-24T00:30:09;97427.34;;;5.21;100.00
53340;BME280;46212;50.258;19.062;2022-12-24T00:32:35;97418.31;;;5.11;100.00
53340;BME280;46212;50.258;19.062;2022-12-24T00:35:02;97418.13;;;5.06;100.00
53340;BME280;46212;50.258;19.062;2022-12-24T00:37:27;97415.69;;;5.29;100.00
53340;BME280;46212;50.258;19.062;2022-12-24T00:39:52;97417.72;;;5.47;100.00
53340;BME280;46212;50.258;19.062;2022-12-24T00:42:17;97408.63;;;5.59;100.00
53340;BME280;46212;50.258;19.062;2022-12-24T00:44:43;97404.25;;;5.71;100.00
53340;BME280;46212;50.258;19.062;2022-12-24T00:47:08;97400.41;;;5.99;100.00
53340;BME280;46212;50.258;19.062;2022-12-24T00:49:33;97404.66;;;5.91;100.00
53340;BME280;46212;50.258;19.062;2022-12-24T00:51:59;97397.91;;;5.83;100.00
53340;BME280;46212;50.258;19.062;2022-12-24T00:54:24;97399.78;;;5.86;100.00
53340;BME280;46212;50.258;19.062;2022-12-24T00:56:49;97409.31;;;5.81;100.00
53340;BME280;46212;50.258;19.062;2022-12-24T00:59:14;97406.13;;;5.83;100.00
53340;BME280;46212;50.258;19.062;2022-12-24T01:01:40;97412.66;;;5.76;100.00
53340;BME280;46212;50.258;19.062;2022-12-24T01:04:05;97413.56;;;5.73;100.00
53340;BME280;46212;50.258;19.062;2022-12-24T01:06:49;97412.66;;;5.76;100.00
53340;BME280;46212;50.258;19.062;2022-12-24T01:09:14;97418.28;;;5.73;99.92
53340;BME280;46212;50.258;19.062;2022-12-24T01:11:39;97412.94;;;5.69;99.85
53340;BME280;46212;50.258;19.062;2022-12-24T01:14:05;97410.63;;;5.68;99.79
53340;BME280;46212;50.258;19.062;2022-12-24T01:16:30;97408.53;;;5.72;99.65
53340;BME280;46212;50.258;19.062;2022-12-24T01:18:55;97401.22;;;5.69;99.36
53340;BME280;46212;50.258;19.062;2022-12-24T01:21:20;97407.00;;;5.71;99.23
53340;BME280;46212;50.258;19.062;2022-12-24T01:23:46;97422.94;;;5.54;99.63
53340;BME280;46212;50.258;19.062;2022-12-24T01:26:11;97420.06;;;5.58;100.00
53340;BME280;46212;50.258;19.062;2022-12-24T01:28:36;97420.34;;;5.51;100.00
53340;BME280;46212;50.258;19.062;2022-12-24T01:31:02;97434.34;;;5.22;100.00
53340;BME280;46212;50.258;19.062;2022-12-24T01:33:30;97423.34;;;5.13;100.00
53340;BME280;46212;50.258;19.062;2022-12-24T01:35:55;97424.50;;;5.03;100.00
53340;BME280;46212;50.258;19.062;2022-12-24T01:38:20;97425.31;;;5.12;100.00
53340;BME280;46212;50.258;19.062;2022-12-24T01:40:46;97414.09;;;5.19;100.00
53340;BME280;46212;50.258;19.062;2022-12-24T01:43:30;97403.03;;;5.01;100.00
53340;BME280;46212;50.258;19.062;2022-12-24T01:46:02;97397.06;;;5.15;100.00
53340;BME280;46212;50.258;19.062;2022-12-24T01:48:39;97400.94;;;5.05;100.00
53340;BME280;46212;50.258;19.062;2022-12-24T01:53:32;97385.69;;;4.95;100.00
53340;BME280;46212;50.258;19.062;2022-12-24T01:55:58;97390.78;;;5.06;100.00
53340;BME280;46212;50.258;19.062;2022-12-24T01:58:24;97384.41;;;5.09;100.00
53340;BME280;46212;50.258;19.062;2022-12-24T02:00:50;97382.94;;;5.17;100.00
53340;BME280;46212;50.258;19.062;2022-12-24T02:03:15;97391.31;;;5.22;100.00
53340;BME280;46212;50.258;19.062;2022-12-24T02:05:45;97382.34;;;5.22;100.00
53340;BME280;46212;50.258;19.062;2022-12-24T02:08:10;97388.56;;;5.22;100.00
53340;BME280;46212;50.258;19.062;2022-12-24T02:10:37;97375.31;;;5.21;100.00
53340;BME280;46212;50.258;19.062;2022-12-24T02:13:02;97382.97;;;5.26;100.00
53340;BME280;46212;50.258;19.062;2022-12-24T02:15:29;97390.09;;;5.23;100.00
53340;BME280;46212;50.258;19.062;2022-12-24T02:30:46;97396.41;;;5.11;100.00
53340;BME280;46212;50.258;19.062;2022-12-24T02:41:02;97378.66;;;5.16;100.00
53340;BME280;46212;50.258;19.062;2022-12-24T02:43:34;97382.28;;;5.13;100.00
53340;BME280;46212;50.258;19.062;2022-12-24T02:46:01;97380.91;;;5.08;100.00
53340;BME280;46212;50.258;19.062;2022-12-24T02:48:28;97380.63;;;5.15;100.00
53340;BME280;46212;50.258;19.062;2022-12-24T02:50:56;97377.63;;;5.22;100.00
53340;BME280;46212;50.258;19.062;2022-12-24T02:53:21;97392.50;;;5.21;100.00
53340;BME280;46212;50.258;19.062;2022-12-24T03:05:47;97402.47;;;5.37;100.00
53340;BME280;46212;50.258;19.062;2022-12-24T03:11:01;97406.19;;;5.92;100.00
53340;BME280;46212;50.258;19.062;2022-12-24T03:13:29;97409.91;;;5.67;100.00
53340;BME280;46212;50.258;19.062;2022-12-24T03:15:54;97414.78;;;5.72;100.00
53340;BME280;46212;50.258;19.062;2022-12-24T03:18:21;97427.88;;;5.77;100.00
53340;BME280;46212;50.258;19.062;2022-12-24T03:20:55;97421.78;;;5.73;100.00
53340;BME280;46212;50.258;19.062;2022-12-24T03:23:21;97427.88;;;5.77;100.00
53340;BME280;46212;50.258;19.062;2022-12-24T03:25:47;97437.31;;;5.76;100.00
53340;BME280;46212;50.258;19.062;2022-12-24T03:28:13;97432.88;;;5.70;100.00
53340;BME280;46212;50.258;19.062;2022-12-24T03:30:40;97427.59;;;5.84;100.00
53340;BME280;46212;50.258;19.062;2022-12-24T03:33:06;97431.84;;;5.76;100.00
53340;BME280;46212;50.258;19.062;2022-12-24T03:35:32;97431.66;;;5.71;100.00
53340;BME280;46212;50.258;19.062;2022-12-24T03:37:57;97429.50;;;5.66;100.00
53340;BME280;46212;50.258;19.062;2022-12-24T03:40:22;97428.09;;;5.61;100.00
53340;BME280;46212;50.258;19.062;2022-12-24T03:42:48;97444.75;;;5.67;100.00
53340;BME280;46212;50.258;19.062;2022-12-24T03:45:13;97441.66;;;5.65;100.00
53340;BME280;46212;50.258;19.062;2022-12-24T03:47:38;97439.59;;;5.78;100.00
53340;BME280;46212;50.258;19.062;2022-12-24T03:50:04;97450.09;;;5.79;100.00
53340;BME280;46212;50.258;19.062;2022-12-24T03:52:30;97454.78;;;5.70;100.00
53340;BME280;46212;50.258;19.062;2022-12-24T03:54:55;97447.38;;;5.79;100.00
53340;BME280;46212;50.258;19.062;2022-12-24T03:57:20;97438.78;;;5.68;100.00
53340;BME280;46212;50.258;19.062;2022-12-24T03:59:45;97442.13;;;5.63;100.00
53340;BME280;46212;50.258;19.062;2022-12-24T04:02:11;97441.41;;;5.72;100.00
53340;BME280;46212;50.258;19.062;2022-12-24T04:04:36;97439.97;;;5.89;100.00
53340;BME280;46212;50.258;19.062;2022-12-24T04:07:02;97438.47;;;5.57;100.00
53340;BME280;46212;50.258;19.062;2022-12-24T04:09:27;97433.69;;;5.49;100.00
53340;BME280;46212;50.258;19.062;2022-12-24T04:11:53;97437.06;;;5.53;100.00
53340;BME280;46212;50.258;19.062;2022-12-24T04:14:18;97428.50;;;5.42;100.00
53340;BME280;46212;50.258;19.062;2022-12-24T04:16:43;97419.78;;;5.34;100.00
53340;BME280;46212;50.258;19.062;2022-12-24T04:19:08;97426.75;;;5.57;100.00
53340;BME280;46212;50.258;19.062;2022-12-24T04:21:34;97427.47;;;5.48;100.00
53340;BME280;46212;50.258;19.062;2022-12-24T04:23:59;97435.78;;;5.35;100.00
53340;BME280;46212;50.258;19.062;2022-12-24T04:26:24;97430.16;;;5.39;100.00
53340;BME280;46212;50.258;19.062;2022-12-24T04:28:50;97425.31;;;5.43;100.00
53340;BME280;46212;50.258;19.062;2022-12-24T04:31:15;97423.03;;;5.42;100.00
53340;BME280;46212;50.258;19.062;2022-12-24T04:33:42;97428.00;;;5.34;100.00
53340;BME280;46212;50.258;19.062;2022-12-24T04:36:07;97425.00;;;5.41;100.00
53340;BME280;46212;50.258;19.062;2022-12-24T04:38:35;97423.44;;;5.31;100.00
53340;BME280;46212;50.258;19.062;2022-12-24T04:41:07;97439.47;;;5.42;100.00
53340;BME280;46212;50.258;19.062;2022-12-24T04:43:32;97430.16;;;5.39;100.00
53340;BME280;46212;50.258;19.062;2022-12-24T04:46:09;97438.06;;;5.37;100.00
53340;BME280;46212;50.258;19.062;2022-12-24T04:48:35;97435.94;;;5.41;100.00
53340;BME280;46212;50.258;19.062;2022-12-24T04:51:01;97445.53;;;5.46;100.00
53340;BME280;46212;50.258;19.062;2022-12-24T04:53:27;97449.94;;;5.43;100.00
53340;BME280;46212;50.258;19.062;2022-12-24T04:55:52;97444.94;;;5.42;100.00
53340;BME280;46212;50.258;19.062;2022-12-24T04:58:17;97438.22;;;5.43;100.00
53340;BME280;46212;50.258;19.062;2022-12-24T05:00:43;97440.94;;;5.33;100.00
53340;BME280;46212;50.258;19.062;2022-12-24T05:03:08;97443.41;;;5.41;100.00
53340;BME280;46212;50.258;19.062;2022-12-24T05:05:33;97441.38;;;5.32;100.00
53340;BME280;46212;50.258;19.062;2022-12-24T05:07:58;97447.56;;;5.23;100.00
53340;BME280;46212;50.258;19.062;2022-12-24T05:10:24;97451.84;;;5.24;100.00
53340;BME280;46212;50.258;19.062;2022-12-24T05:12:49;97450.59;;;5.16;100.00
53340;BME280;46212;50.258;19.062;2022-12-24T05:15:14;97447.25;;;5.21;100.00
53340;BME280;46212;50.258;19.062;2022-12-24T05:17:39;97447.56;;;5.23;100.00
53340;BME280;46212;50.258;19.062;2022-12-24T05:20:05;97456.53;;;5.24;100.00
53340;BME280;46212;50.258;19.062;2022-12-24T05:22:30;97457.81;;;5.32;100.00
53340;BME280;46212;50.258;19.062;2022-12-24T05:25:14;97449.72;;;5.28;100.00
53340;BME280;46212;50.258;19.062;2022-12-24T05:27:58;97456.09;;;5.25;100.00
53340;BME280;46212;50.258;19.062;2022-12-24T05:30:23;97461.16;;;5.36;100.00
53340;BME280;46212;50.258;19.062;2022-12-24T05:32:49;97461.84;;;5.49;100.00
53340;BME280;46212;50.258;19.062;2022-12-24T05:35:14;97457.25;;;5.46;100.00
53340;BME280;46212;50.258;19.062;2022-12-24T05:37:39;97462.16;;;5.51;100.00
53340;BME280;46212;50.258;19.062;2022-12-24T05:40:05;97460.34;;;5.48;100.00
53340;BME280;46212;50.258;19.062;2022-12-24T05:42:30;97461.66;;;5.44;100.00
53340;BME280;46212;50.258;19.062;2022-12-24T05:44:55;97467.00;;;5.47;100.00
53340;BME280;46212;50.258;19.062;2022-12-24T05:47:21;97465.25;;;5.62;100.00
53340;BME280;46212;50.258;19.062;2022-12-24T05:49:46;97469.78;;;5.56;100.00
53340;BME280;46212;50.258;19.062;2022-12-24T05:52:11;97475.09;;;5.51;100.00
53340;BME280;46212;50.258;19.062;2022-12-24T05:54:36;97468.97;;;5.47;100.00
53340;BME280;46212;50.258;19.062;2022-12-24T05:57:02;97477.41;;;5.61;100.00
53340;BME280;46212;50.258;19.062;2022-12-24T05:59:27;97472.78;;;5.49;100.00
53340;BME280;46212;50.258;19.062;2022-12-24T06:01:52;97473.56;;;5.50;100.00
53340;BME280;46212;50.258;19.062;2022-12-24T06:04:17;97467.44;;;5.46;100.00
53340;BME280;46212;50.258;19.062;2022-12-24T06:06:43;97473.81;;;5.43;100.00
53340;BME280;46212;50.258;19.062;2022-12-24T06:09:08;97478.72;;;5.48;100.00
53340;BME280;46212;50.258;19.062;2022-12-24T06:11:34;97485.63;;;5.61;100.00
53340;BME280;46212;50.258;19.062;2022-12-24T06:13:59;97482.75;;;5.65;100.00
53340;BME280;46212;50.258;19.062;2022-12-24T06:16:24;97495.53;;;5.68;100.00
53340;BME280;46212;50.258;19.062;2022-12-24T06:18:50;97495.84;;;5.61;100.00
53340;BME280;46212;50.258;19.062;2022-12-24T06:21:15;97503.19;;;5.73;100.00
53340;BME280;46212;50.258;19.062;2022-12-24T06:23:41;97506.69;;;5.73;100.00
53340;BME280;46212;50.258;19.062;2022-12-24T06:26:07;97506.50;;;5.68;100.00
53340;BME280;46212;50.258;19.062;2022-12-24T06:28:34;97500.72;;;5.66;100.00
53340;BME280;46212;50.258;19.062;2022-12-24T06:31:00;97503.97;;;5.73;100.00
53340;BME280;46212;50.258;19.062;2022-12-24T06:33:26;97509.44;;;5.73;100.00
53340;BME280;46212;50.258;19.062;2022-12-24T06:35:51;97508.50;;;5.67;100.00
53340;BME280;46212;50.258;19.062;2022-12-24T06:38:17;97512.13;;;5.64;100.00
53340;BME280;46212;50.258;19.062;2022-12-24T06:40:42;97520.84;;;5.72;100.00
53340;BME280;46212;50.258;19.062;2022-12-24T06:43:08;97513.88;;;5.80;100.00
53340;BME280;46212;50.258;19.062;2022-12-24T06:45:33;97522.09;;;5.80;100.00
53340;BME280;46212;50.258;19.062;2022-12-24T06:47:59;97525.59;;;5.80;100.00
53340;BME280;46212;50.258;19.062;2022-12-24T06:50:24;97523.06;;;5.86;100.00
53340;BME280;46212;50.258;19.062;2022-12-24T06:52:50;97517.28;;;5.93;100.00
53340;BME280;46212;50.258;19.062;2022-12-24T06:55:15;97521.13;;;5.96;100.00
53340;BME280;46212;50.258;19.062;2022-12-24T06:57:41;97526.91;;;5.98;100.00
53340;BME280;46212;50.258;19.062;2022-12-24T07:00:07;97525.25;;;6.00;100.00
53340;BME280;46212;50.258;19.062;2022-12-24T07:02:32;97532.09;;;5.96;100.00
53340;BME280;46212;50.258;19.062;2022-12-24T07:04:57;97528.88;;;5.97;100.00
53340;BME280;46212;50.258;19.062;2022-12-24T07:07:23;97540.69;;;6.16;100.00
53340;BME280;46212;50.258;19.062;2022-12-24T07:09:48;97548.31;;;6.21;100.00
53340;BME280;46212;50.258;19.062;2022-12-24T07:12:13;97547.38;;;6.15;100.00
53340;BME280;46212;50.258;19.062;2022-12-24T07:14:38;97547.28;;;6.27;100.00
53340;BME280;46212;50.258;19.062;2022-12-24T07:17:04;97543.31;;;6.37;100.00
53340;BME280;46212;50.258;19.062;2022-12-24T07:19:29;97542.88;;;6.39;100.00
53340;BME280;46212;50.258;19.062;2022-12-24T07:21:54;97553.25;;;6.44;100.00
53340;BME280;46212;50.258;19.062;2022-12-24T07:24:20;97552.06;;;6.54;100.00
53340;BME280;46212;50.258;19.062;2022-12-24T07:26:45;97555.59;;;6.64;100.00
53340;BME280;46212;50.258;19.062;2022-12-24T07:29:10;97555.13;;;6.56;100.00
53340;BME280;46212;50.258;19.062;2022-12-24T07:31:36;97559.81;;;6.47;100.00
53340;BME280;46212;50.258;19.062;2022-12-24T07:34:01;97566.38;;;6.49;100.00
53340;BME280;46212;50.258;19.062;2022-12-24T07:36:26;97567.97;;;6.77;100.00
53340;BME280;46212;50.258;19.062;2022-12-24T07:38:52;97570.09;;;6.91;100.00
53340;BME280;46212;50.258;19.062;2022-12-24T07:41:17;97572.25;;;6.87;100.00
53340;BME280;46212;50.258;19.062;2022-12-24T07:43:43;97568.88;;;6.92;100.00
53340;BME280;46212;50.258;19.062;2022-12-24T07:46:08;97569.31;;;6.82;100.00
53340;BME280;46212;50.258;19.062;2022-12-24T07:48:33;97579.22;;;6.79;100.00
53340;BME280;46212;50.258;19.062;2022-12-24T07:50:59;97575.56;;;6.82;100.00
53340;BME280;46212;50.258;19.062;2022-12-24T07:53:27;97580.00;;;7.07;100.00
53340;BME280;46212;50.258;19.062;2022-12-24T07:55:52;97582.44;;;6.87;100.00
53340;BME280;46212;50.258;19.062;2022-12-24T07:58:18;97589.94;;;7.05;100.00
53340;BME280;46212;50.258;19.062;2022-12-24T08:00:43;97598.50;;;7.07;100.00
53340;BME280;46212;50.258;19.062;2022-12-24T08:03:11;97603.50;;;7.17;100.00
53340;BME280;46212;50.258;19.062;2022-12-24T08:05:40;97591.94;;;7.22;100.00
53340;BME280;46212;50.258;19.062;2022-12-24T08:08:05;97605.22;;;7.42;99.10
53340;BME280;46212;50.258;19.062;2022-12-24T08:10:30;97601.19;;;7.61;98.51
53340;BME280;46212;50.258;19.062;2022-12-24T08:12:55;97598.31;;;7.46;97.42
53340;BME280;46212;50.258;19.062;2022-12-24T08:15:21;97601.22;;;7.52;97.41
53340;BME280;46212;50.258;19.062;2022-12-24T08:17:46;97613.44;;;7.51;97.42
53340;BME280;46212;50.258;19.062;2022-12-24T08:20:11;97603.19;;;7.42;96.79
53340;BME280;46212;50.258;19.062;2022-12-24T08:22:36;97607.19;;;7.51;97.05
53340;BME280;46212;50.258;19.062;2022-12-24T08:25:02;97620.91;;;7.60;95.96
53340;BME280;46212;50.258;19.062;2022-12-24T08:27:28;97618.94;;;7.42;97.11
53340;BME280;46212;50.258;19.062;2022-12-24T08:29:53;97625.03;;;7.46;96.65
53340;BME280;46212;50.258;19.062;2022-12-24T08:32:18;97618.94;;;7.51;96.79
53340;BME280;46212;50.258;19.062;2022-12-24T08:34:43;97624.09;;;7.49;96.15
53340;BME280;46212;50.258;19.062;2022-12-24T08:37:09;97637.69;;;7.62;97.06
53340;BME280;46212;50.258;19.062;2022-12-24T08:39:34;97638.28;;;7.75;97.03
53340;BME280;46212;50.258;19.062;2022-12-24T08:41:59;97643.94;;;7.71;96.11
53340;BME280;46212;50.258;19.062;2022-12-24T08:44:25;97646.53;;;7.66;95.59
53340;BME280;46212;50.258;19.062;2022-12-24T08:46:50;97654.47;;;7.73;95.39
53340;BME280;46212;50.258;19.062;2022-12-24T08:49:15;97654.16;;;7.89;94.53
53340;BME280;46212;50.258;19.062;2022-12-24T08:51:41;97649.28;;;7.75;95.04
53340;BME280;46212;50.258;19.062;2022-12-24T08:54:06;97651.13;;;7.69;95.68
53340;BME280;46212;50.258;19.062;2022-12-24T08:56:31;97658.75;;;7.65;95.64
53340;BME280;46212;50.258;19.062;2022-12-24T08:58:58;97662.13;;;7.60;95.55
53340;BME280;46212;50.258;19.062;2022-12-24T09:01:23;97664.41;;;7.79;95.60
53340;BME280;46212;50.258;19.062;2022-12-24T09:03:49;97669.44;;;7.72;95.35
53340;BME280;46212;50.258;19.062;2022-12-24T09:06:17;97669.25;;;7.93;94.45
53340;BME280;46212;50.258;19.062;2022-12-24T09:08:42;97679.97;;;7.91;93.89
53340;BME280;46212;50.258;19.062;2022-12-24T09:11:09;97682.25;;;8.02;93.65
53340;BME280;46212;50.258;19.062;2022-12-24T09:13:35;97680.25;;;7.93;93.71
53340;BME280;46212;50.258;19.062;2022-12-24T09:16:00;97671.50;;;8.22;92.42
53340;BME280;46212;50.258;19.062;2022-12-24T09:18:25;97682.09;;;7.96;93.42
53340;BME280;46212;50.258;19.062;2022-12-24T09:20:51;97678.28;;;7.94;93.99
53340;BME280;46212;50.258;19.062;2022-12-24T09:23:16;97677.81;;;7.86;94.08
53340;BME280;46212;50.258;19.062;2022-12-24T09:25:41;97667.88;;;7.98;94.21
53340;BME280;46212;50.258;19.062;2022-12-24T09:28:07;97677.34;;;8.06;93.56
53340;BME280;46212;50.258;19.062;2022-12-24T09:30:32;97686.06;;;8.05;93.20
53340;BME280;46212;50.258;19.062;2022-12-24T09:32:57;97676.59;;;7.96;93.90
53340;BME280;46212;50.258;19.062;2022-12-24T09:35:22;97701.03;;;8.03;93.71
53340;BME280;46212;50.258;19.062;2022-12-24T09:37:48;97703.72;;;8.22;92.78
53340;BME280;46212;50.258;19.062;2022-12-24T09:40:28;97713.56;;;8.05;92.96
53340;BME280;46212;50.258;19.062;2022-12-24T09:42:55;97703.41;;;8.38;91.94
53340;BME280;46212;50.258;19.062;2022-12-24T09:45:27;97708.28;;;8.52;91.29
53340;BME280;46212;50.258;19.062;2022-12-24T09:48:15;97704.06;;;8.33;91.94
53340;BME280;46212;50.258;19.062;2022-12-24T09:53:25;97714.03;;;8.63;90.56
53340;BME280;46212;50.258;19.062;2022-12-24T09:55:55;97727.50;;;8.61;90.35
53340;BME280;46212;50.258;19.062;2022-12-24T09:58:26;97725.22;;;8.60;90.41
53340;BME280;46212;50.258;19.062;2022-12-24T10:00:53;97729.38;;;8.55;90.48
53340;BME280;46212;50.258;19.062;2022-12-24T10:03:20;97715.13;;;8.57;90.23
53340;BME280;46212;50.258;19.062;2022-12-24T10:13:11;97733.31;;;8.63;90.43
53340;BME280;46212;50.258;19.062;2022-12-24T10:15:51;97736.97;;;8.69;90.34
53340;BME280;46212;50.258;19.062;2022-12-24T10:18:22;97739.09;;;8.74;89.87
53340;BME280;46212;50.258;19.062;2022-12-24T10:31:25;97752.03;;;8.92;90.28
53340;BME280;46212;50.258;19.062;2022-12-24T10:33:56;97755.25;;;8.90;90.13
53340;BME280;46212;50.258;19.062;2022-12-24T10:36:24;97765.34;;;8.93;90.04
53340;BME280;46212;50.258;19.062;2022-12-24T10:38:50;97769.31;;;8.92;90.36
53340;BME280;46212;50.258;19.062;2022-12-24T10:41:16;97765.56;;;8.72;91.42
53340;BME280;46212;50.258;19.062;2022-12-24T10:43:42;97781.00;;;8.78;91.17
53340;BME280;46212;50.258;19.062;2022-12-24T10:46:16;97783.72;;;8.87;91.01
53340;BME280;46212;50.258;19.062;2022-12-24T10:48:56;97789.72;;;8.68;91.64
53340;BME280;46212;50.258;19.062;2022-12-24T10:54:24;97785.59;;;8.63;93.87
53340;BME280;46212;50.258;19.062;2022-12-24T10:56:51;97791.59;;;8.62;93.65
53340;BME280;46212;50.258;19.062;2022-12-24T10:59:29;97808.28;;;8.49;94.13
53340;BME280;46212;50.258;19.062;2022-12-24T11:01:59;97804.59;;;8.52;95.26
53340;BME280;46212;50.258;19.062;2022-12-24T11:04:25;97814.22;;;8.47;96.59
53340;BME280;46212;50.258;19.062;2022-12-24T11:12:15;97820.50;;;8.12;100.00
53340;BME280;46212;50.258;19.062;2022-12-24T11:14:42;97830.28;;;8.31;99.97
53340;BME280;46212;50.258;19.062;2022-12-24T11:17:15;97829.19;;;8.19;100.00
53340;BME280;46212;50.258;19.062;2022-12-24T11:19:43;97823.41;;;8.17;100.00
53340;BME280;46212;50.258;19.062;2022-12-24T11:22:30;97828.56;;;8.15;100.00
53340;BME280;46212;50.258;19.062;2022-12-24T11:25:06;97829.97;;;8.20;100.00
53340;BME280;46212;50.258;19.062;2022-12-24T11:27:39;97822.63;;;8.17;100.00
53340;BME280;46212;50.258;19.062;2022-12-24T11:32:39;97843.56;;;8.23;99.53
53340;BME280;46212;50.258;19.062;2022-12-24T11:35:05;97853.50;;;8.21;99.70
53340;BME280;46212;50.258;19.062;2022-12-24T11:37:31;97852.91;;;8.44;98.62
53340;BME280;46212;50.258;19.062;2022-12-24T11:39:57;97859.78;;;8.30;99.02
53340;BME280;46212;50.258;19.062;2022-12-24T11:44:49;97885.63;;;8.33;99.64
53340;BME280;46212;50.258;19.062;2022-12-24T11:47:15;97886.38;;;8.33;100.00
53340;BME280;46212;50.258;19.062;2022-12-24T11:49:40;97888.78;;;8.22;100.00
53340;BME280;46212;50.258;19.062;2022-12-24T11:54:35;97886.69;;;8.35;99.51
53340;BME280;46212;50.258;19.062;2022-12-24T11:57:04;97893.88;;;8.42;98.88
53340;BME280;46212;50.258;19.062;2022-12-24T11:59:34;97905.78;;;8.48;97.73
53340;BME280;46212;50.258;19.062;2022-12-24T12:04:47;97902.13;;;8.33;97.85
53340;BME280;46212;50.258;19.062;2022-12-24T12:07:16;97900.56;;;8.23;99.26
53340;BME280;46212;50.258;19.062;2022-12-24T12:09:53;97897.41;;;8.42;99.17
53340;BME280;46212;50.258;19.062;2022-12-24T12:12:23;97912.84;;;8.40;98.16
53340;BME280;46212;50.258;19.062;2022-12-24T12:14:57;97911.44;;;8.35;98.52
53340;BME280;46212;50.258;19.062;2022-12-24T12:19:52;97920.09;;;8.25;99.06
53340;BME280;46212;50.258;19.062;2022-12-24T12:25:03;97930.84;;;8.32;99.61
53340;BME280;46212;50.258;19.062;2022-12-24T12:27:31;97941.19;;;8.19;100.00
53340;BME280;46212;50.258;19.062;2022-12-24T12:30:00;97936.34;;;8.41;99.70
53340;BME280;46212;50.258;19.062;2022-12-24T12:35:22;97949.47;;;8.28;99.71
53340;BME280;46212;50.258;19.062;2022-12-24T12:37:53;97961.06;;;8.23;99.81
53340;BME280;46212;50.258;19.062;2022-12-24T12:40:19;97951.94;;;8.35;99.30
53340;BME280;46212;50.258;19.062;2022-12-24T12:42:54;97959.47;;;8.52;97.95
53340;BME280;46212;50.258;19.062;2022-12-24T12:45:30;97961.44;;;8.34;98.22
53340;BME280;46212;50.258;19.062;2022-12-24T12:55:37;97981.94;;;8.60;96.34
53340;BME280;46212;50.258;19.062;2022-12-24T13:00:50;98005.94;;;8.50;96.32
53340;BME280;46212;50.258;19.062;2022-12-24T13:21:20;98027.94;;;8.60;97.68
53340;BME280;46212;50.258;19.062;2022-12-24T13:23:47;98030.53;;;8.45;97.02
53340;BME280;46212;50.258;19.062;2022-12-24T13:26:12;98035.25;;;8.44;97.91
53340;BME280;46212;50.258;19.062;2022-12-24T13:28:38;98050.97;;;8.35;98.43
53340;BME280;46212;50.258;19.062;2022-12-24T13:36:02;98063.25;;;8.12;99.54
53340;BME280;46212;50.258;19.062;2022-12-24T13:40:53;98059.13;;;8.08;100.00
53340;BME280;46212;50.258;19.062;2022-12-24T13:43:19;98072.88;;;8.08;100.00
53340;BME280;46212;50.258;19.062;2022-12-24T13:45:48;98074.03;;;7.97;100.00
53340;BME280;46212;50.258;19.062;2022-12-24T13:48:20;98072.88;;;8.08;100.00
53340;BME280;46212;50.258;19.062;2022-12-24T13:50:49;98082.59;;;7.99;100.00
53340;BME280;46212;50.258;19.062;2022-12-24T13:55:55;98099.22;;;7.96;100.00
53340;BME280;46212;50.258;19.062;2022-12-24T13:58:22;98091.31;;;7.98;100.00
53340;BME280;46212;50.258;19.062;2022-12-24T14:01:21;98104.53;;;7.90;100.00
53340;BME280;46212;50.258;19.062;2022-12-24T14:03:58;98108.53;;;7.89;100.00
53340;BME280;46212;50.258;19.062;2022-12-24T14:06:25;98111.66;;;8.31;100.00
53340;BME280;46212;50.258;19.062;2022-12-24T14:08:55;98128.31;;;8.06;99.80
53340;BME280;46212;50.258;19.062;2022-12-24T14:11:23;98114.47;;;7.88;100.00
53340;BME280;46212;50.258;19.062;2022-12-24T14:16:28;98138.09;;;8.07;100.00
53340;BME280;46212;50.258;19.062;2022-12-24T14:19:11;98140.28;;;7.90;100.00
53340;BME280;46212;50.258;19.062;2022-12-24T14:21:41;98148.47;;;7.81;100.00
53340;BME280;46212;50.258;19.062;2022-12-24T14:24:18;98146.44;;;7.94;100.00
53340;BME280;46212;50.258;19.062;2022-12-24T14:26:50;98155.81;;;7.84;100.00
53340;BME280;46212;50.258;19.062;2022-12-24T14:32:20;98165.03;;;7.69;100.00
53340;BME280;46212;50.258;19.062;2022-12-24T14:34:46;98172.63;;;7.86;100.00
53340;BME280;46212;50.258;19.062;2022-12-24T14:37:11;98176.75;;;7.82;100.00
53340;BME280;46212;50.258;19.062;2022-12-24T14:39:46;98185.28;;;7.84;100.00
53340;BME280;46212;50.258;19.062;2022-12-24T14:42:17;98188.81;;;7.84;100.00
53340;BME280;46212;50.258;19.062;2022-12-24T14:47:29;98194.13;;;7.79;100.00
53340;BME280;46212;50.258;19.062;2022-12-24T14:55:55;98203.97;;;7.67;100.00
53340;BME280;46212;50.258;19.062;2022-12-24T14:58:32;98196.94;;;7.66;100.00
53340;BME280;46212;50.258;19.062;2022-12-24T15:01:18;98211.41;;;7.79;100.00
53340;BME280;46212;50.258;19.062;2022-12-24T15:03:43;98217.44;;;7.74;100.00
53340;BME280;46212;50.258;19.062;2022-12-24T15:06:09;98222.50;;;7.76;100.00
53340;BME280;46212;50.258;19.062;2022-12-24T15:08:37;98228.50;;;7.62;100.00